Main page
METAR-TAF:

METAR-TAF

Airports :

Portorož Airport

Portorož, Slovenia

latitude: 45-31N, longitude: 013-34E, elevation: 95 m

Current weather observation

The report was made 33 minutes ago, at 19:00 UTC
Wind 1 kt from the East
Temperature 19°C
Humidity 88%
Pressure 1015 hPa
Visibility 10 km or more
Few clouds at a height of 4000 ft
Broken clouds at a height of 8000 ft

METAR: LJPZ 221900Z 10001KT 9999 FEW040 BKN080 19/17 Q1015

Time: 21:33 (19:33 UTC)

Forecast

The report was made 2 hours and 33 minutes ago, at 17:00 UTC
Forecast valid from 22 at 18 UTC to 23 at 03 UTC
Wind 5 kt from the East/Southeast
Visibility 10 km or more
Few clouds at a height of 4000 ft
Scattered clouds at a height of 11000 ft

TAF: LJPZ 221700Z 2218/2303 12005KT 9999 FEW040 SCT110

Weather observations and forecasts of more than 4000 airports (METAR and TAF reports).

The available stations are represented by yellow and red dots on the map.

Hover mouse over dot to see the name of the station.

Then click to see weather observations and forecasts.

To change the map : click on the green buttons with a black cross to zoom in, on the green button with a dash to zoom out, or on the green arrows for adjacent maps.


METAR-TAF: